createdAt,value
2017-03-11T00:01:19.584Z,4.85
2017-03-11T00:02:41.971Z,4.85
2017-03-11T00:04:03.742Z,4.86
2017-03-11T00:05:25.891Z,4.75
2017-03-11T00:06:48.488Z,4.85
2017-03-11T00:08:10.757Z,4.86
2017-03-11T00:09:33.756Z,4.94
2017-03-11T00:10:55.102Z,5
2017-03-11T00:12:17.655Z,5.04
2017-03-11T00:13:40.090Z,5.1
2017-03-11T00:15:02.252Z,5.09
2017-03-11T00:16:23.984Z,5.1
2017-03-11T00:17:46.259Z,5.02
2017-03-11T00:19:09.155Z,5.02
2017-03-11T00:20:30.521Z,5.02
2017-03-11T00:21:52.650Z,4.88
2017-03-11T00:23:15.317Z,4.88
2017-03-11T00:24:38.117Z,4.92
2017-03-11T00:26:00.269Z,4.91
2017-03-11T00:27:23.196Z,4.94
2017-03-11T00:28:45.339Z,4.92
2017-03-11T00:30:08.520Z,4.84
2017-03-11T00:31:31.071Z,4.75
2017-03-11T00:32:52.809Z,4.85
2017-03-11T00:34:15.411Z,4.8
2017-03-11T00:35:37.610Z,4.82
2017-03-11T00:37:00.147Z,4.69
2017-03-11T00:38:22.298Z,4.72
2017-03-11T00:39:44.587Z,4.8
2017-03-11T00:41:07.150Z,4.77
2017-03-11T00:42:28.488Z,4.75
2017-03-11T00:43:50.667Z,4.75
2017-03-11T00:45:13.638Z,4.78
2017-03-11T00:46:36.555Z,4.77
2017-03-11T00:47:58.694Z,4.84
2017-03-11T00:49:20.444Z,4.82
2017-03-11T00:50:42.682Z,4.77
2017-03-11T00:52:05.476Z,4.78
2017-03-11T00:53:28.402Z,4.77
2017-03-11T00:54:49.736Z,4.73
2017-03-11T00:56:12.708Z,4.7
2017-03-11T00:57:35.601Z,4.82
2017-03-11T00:58:58.188Z,4.82
2017-03-11T01:00:20.335Z,4.8
2017-03-11T01:01:42.871Z,4.82
2017-03-11T01:03:05.678Z,4.86
2017-03-11T01:04:27.832Z,4.72
2017-03-11T01:05:49.960Z,4.84
2017-03-11T01:07:12.101Z,4.75
2017-03-11T01:08:35.029Z,4.85
2017-03-11T01:09:57.568Z,4.73
2017-03-11T01:11:19.283Z,4.86
2017-03-11T01:12:41.099Z,4.8
2017-03-11T01:15:31.351Z,4.77
2017-03-11T01:16:54.430Z,4.86
2017-03-11T01:18:16.264Z,4.82
2017-03-11T01:19:38.410Z,4.85
2017-03-11T01:21:00.799Z,4.85
2017-03-11T01:22:23.026Z,4.75
2017-03-11T01:23:45.606Z,4.8
2017-03-11T01:25:08.168Z,4.75
2017-03-11T01:26:31.029Z,4.77
2017-03-11T01:27:54.017Z,4.73
2017-03-11T01:29:16.189Z,4.82
2017-03-11T01:30:38.316Z,4.72
2017-03-11T01:32:01.100Z,4.78
2017-03-11T01:33:24.026Z,4.84
2017-03-11T01:34:45.752Z,4.7
2017-03-11T01:36:08.807Z,4.8
2017-03-11T01:37:31.210Z,4.77
2017-03-11T01:38:52.939Z,4.73
2017-03-11T01:40:15.342Z,4.77
2017-03-11T01:41:37.089Z,4.59
2017-03-11T01:42:59.474Z,4.59
2017-03-11T01:44:21.652Z,4.7
2017-03-11T01:45:44.235Z,4.67
2017-03-11T01:47:06.422Z,4.6
2017-03-11T01:48:29.699Z,4.67
2017-03-11T01:49:51.550Z,4.72
2017-03-11T01:51:14.112Z,4.78
2017-03-11T01:52:36.637Z,4.86
2017-03-11T01:53:59.084Z,4.78
2017-03-11T01:55:20.024Z,4.78
2017-03-11T01:56:42.570Z,4.82
2017-03-11T01:58:04.759Z,4.84
2017-03-11T01:59:26.801Z,4.85
2017-03-11T02:00:48.955Z,4.84
2017-03-11T02:02:09.881Z,4.91
2017-03-11T02:03:32.032Z,4.86
2017-03-11T02:04:54.024Z,4.86
2017-03-11T02:06:16.398Z,4.91
2017-03-11T02:07:39.483Z,4.85
2017-03-11T02:09:01.705Z,4.97
2017-03-11T02:10:24.619Z,4.86
2017-03-11T02:11:47.191Z,4.94
2017-03-11T02:13:09.711Z,4.85
2017-03-11T02:14:31.955Z,4.97
2017-03-11T02:15:54.332Z,4.91
2017-03-11T02:17:16.962Z,4.84
2017-03-11T02:18:39.501Z,4.92
2017-03-11T02:20:01.256Z,4.94
2017-03-11T02:21:23.692Z,5
2017-03-11T02:22:46.653Z,5.06
2017-03-11T02:24:08.768Z,5.07
2017-03-11T02:25:30.556Z,5.04
2017-03-11T02:26:53.352Z,5
2017-03-11T02:28:15.898Z,5
2017-03-11T02:29:38.873Z,4.96
2017-03-11T02:31:01.090Z,4.88
2017-03-11T02:32:22.677Z,4.86
2017-03-11T02:33:44.842Z,4.86
2017-03-11T02:35:07.039Z,4.84
2017-03-11T02:36:29.651Z,4.8
2017-03-11T02:37:52.183Z,4.69
2017-03-11T02:39:13.518Z,4.7
2017-03-11T02:40:35.642Z,4.7
2017-03-11T02:41:57.858Z,4.72
2017-03-11T02:43:20.299Z,4.7
2017-03-11T02:44:42.574Z,4.7
2017-03-11T02:46:04.798Z,4.72
2017-03-11T02:47:26.951Z,4.67
2017-03-11T02:48:49.820Z,4.65
2017-03-11T02:50:11.942Z,4.59
2017-03-11T02:51:34.477Z,4.59
2017-03-11T02:52:55.851Z,4.66
2017-03-11T02:54:18.347Z,4.82
2017-03-11T02:55:40.477Z,4.69
2017-03-11T02:57:03.140Z,4.78
2017-03-11T02:58:25.267Z,4.77
2017-03-11T02:59:48.447Z,4.8
2017-03-11T03:01:10.598Z,4.8
2017-03-11T03:02:33.193Z,4.77
2017-03-11T03:03:54.934Z,4.73
2017-03-11T03:05:16.982Z,4.7
2017-03-11T03:06:39.543Z,4.78
2017-03-11T03:08:01.698Z,4.82
2017-03-11T03:09:24.303Z,4.84
2017-03-11T03:10:47.124Z,4.8
2017-03-11T03:12:10.083Z,4.72
2017-03-11T03:13:32.262Z,4.84
2017-03-11T03:14:53.606Z,4.85
2017-03-11T03:16:16.926Z,4.89
2017-03-11T03:17:38.793Z,4.77
2017-03-11T03:19:01.331Z,4.82
2017-03-11T03:20:23.543Z,4.84
2017-03-11T03:21:46.382Z,4.84
2017-03-11T03:23:07.765Z,4.65
2017-03-11T03:24:30.324Z,4.63
2017-03-11T03:25:52.093Z,4.58
2017-03-11T03:27:14.878Z,4.59
2017-03-11T03:28:36.601Z,4.6
2017-03-11T03:29:58.353Z,4.7
2017-03-11T03:31:20.912Z,4.65
2017-03-11T03:32:43.402Z,4.67
2017-03-11T03:34:05.523Z,4.7
2017-03-11T03:35:27.663Z,4.65
2017-03-11T03:36:49.005Z,4.69
2017-03-11T03:38:11.435Z,4.82
2017-03-11T03:39:33.163Z,4.63
2017-03-11T03:40:55.346Z,4.69
2017-03-11T03:42:17.116Z,4.66
2017-03-11T03:43:39.083Z,4.65
2017-03-11T03:45:01.637Z,4.58
2017-03-11T03:46:23.753Z,4.67
2017-03-11T03:47:46.285Z,4.55
2017-03-11T03:49:08.742Z,4.58
2017-03-11T03:50:30.583Z,4.58
2017-03-11T03:51:52.738Z,4.54
2017-03-11T03:53:14.535Z,4.6
2017-03-11T03:54:36.930Z,4.62
2017-03-11T03:55:58.664Z,4.6
2017-03-11T03:57:21.206Z,4.58
2017-03-11T03:58:43.402Z,4.54
2017-03-11T04:00:05.392Z,4.65
2017-03-11T04:01:27.977Z,4.5
2017-03-11T04:02:49.313Z,4.48
2017-03-11T04:04:11.864Z,4.48
2017-03-11T04:05:33.865Z,4.5
2017-03-11T04:06:55.997Z,4.51
2017-03-11T04:08:17.743Z,4.55
2017-03-11T04:09:40.858Z,4.45
2017-03-11T04:11:03.802Z,4.47
2017-03-11T04:12:25.912Z,4.51
2017-03-11T04:13:48.044Z,4.47
2017-03-11T04:15:09.765Z,4.41
2017-03-11T04:16:32.595Z,4.4
2017-03-11T04:17:55.127Z,4.4
2017-03-11T04:19:17.645Z,4.44
2017-03-11T04:20:39.413Z,4.4
2017-03-11T04:22:01.806Z,4.27
2017-03-11T04:23:24.344Z,4.26
2017-03-11T04:24:46.545Z,4.34
2017-03-11T04:26:08.248Z,4.23
2017-03-11T04:27:31.113Z,4.24
2017-03-11T04:28:53.274Z,4.23
2017-03-11T04:30:15.814Z,4.2
2017-03-11T04:31:37.961Z,4.15
2017-03-11T04:33:00.860Z,4.11
2017-03-11T04:34:22.602Z,4.18
2017-03-11T04:35:45.173Z,4.08
2017-03-11T04:37:07.730Z,4.14
2017-03-11T04:38:30.544Z,4.11
2017-03-11T04:39:52.722Z,4.14
2017-03-11T04:41:14.460Z,4.12
2017-03-11T04:42:37.026Z,4.24
2017-03-11T04:43:59.520Z,4.36
2017-03-11T04:45:21.244Z,4.32
2017-03-11T04:46:44.172Z,4.32
2017-03-11T04:48:06.424Z,4.33
2017-03-11T04:49:28.402Z,4.34
2017-03-11T04:50:49.741Z,4.36
2017-03-11T04:52:11.954Z,4.4
2017-03-11T04:53:34.622Z,4.36
2017-03-11T04:54:57.095Z,4.42
2017-03-11T04:56:18.834Z,4.42
2017-03-11T04:57:40.955Z,4.45
2017-03-11T04:59:03.523Z,4.48
2017-03-11T05:00:25.977Z,4.55
2017-03-11T05:01:48.964Z,4.52
2017-03-11T05:03:11.105Z,4.51
2017-03-11T05:04:33.343Z,4.47
2017-03-11T05:05:55.347Z,4.51
2017-03-11T05:07:17.105Z,4.55
2017-03-11T05:08:39.278Z,4.5
2017-03-11T05:10:02.312Z,4.5
2017-03-11T05:11:25.093Z,4.51
2017-03-11T05:12:47.294Z,4.54
2017-03-11T05:14:09.029Z,4.62
2017-03-11T05:15:30.773Z,4.59
2017-03-11T05:16:53.165Z,4.6
2017-03-11T05:18:14.633Z,4.51
2017-03-11T05:19:36.014Z,4.51
2017-03-11T05:20:58.565Z,4.48
2017-03-11T05:22:21.951Z,4.5
2017-03-11T05:23:43.694Z,4.51
2017-03-11T05:25:06.233Z,4.51
2017-03-11T05:26:28.775Z,4.54
2017-03-11T05:27:50.801Z,4.5
2017-03-11T05:29:13.745Z,4.51
2017-03-11T05:30:35.875Z,4.47
2017-03-11T05:31:57.589Z,4.47
2017-03-11T05:33:20.623Z,4.47
2017-03-11T05:34:42.794Z,4.45
2017-03-11T05:36:05.392Z,4.48
2017-03-11T05:37:27.154Z,4.47
2017-03-11T05:38:48.783Z,4.42
2017-03-11T05:40:10.924Z,4.45
2017-03-11T05:41:33.132Z,4.44
2017-03-11T05:42:55.255Z,4.42
2017-03-11T05:44:17.643Z,4.44
2017-03-11T05:45:39.773Z,4.33
2017-03-11T05:47:01.632Z,4.41
2017-03-11T05:48:24.196Z,4.42
2017-03-11T05:49:47.429Z,4.41
2017-03-11T05:51:09.419Z,4.41
2017-03-11T05:52:31.615Z,4.54
2017-03-11T05:53:53.404Z,4.51
2017-03-11T05:55:16.641Z,4.52
2017-03-11T05:56:39.649Z,4.5
2017-03-11T05:58:02.184Z,4.5
2017-03-11T05:59:24.714Z,4.51
2017-03-11T06:00:47.502Z,4.5
2017-03-11T06:02:09.230Z,4.6
2017-03-11T06:03:31.377Z,4.63
2017-03-11T06:04:54.005Z,4.65
2017-03-11T06:06:16.390Z,4.59
2017-03-11T06:07:38.949Z,4.59
2017-03-11T06:09:01.916Z,4.58
2017-03-11T06:10:24.474Z,4.6
2017-03-11T06:11:47.314Z,4.59
2017-03-11T06:13:09.978Z,4.59
2017-03-11T06:14:30.898Z,4.55
2017-03-11T06:15:53.024Z,4.58
2017-03-11T06:17:15.425Z,4.67
2017-03-11T06:18:37.595Z,4.67
2017-03-11T06:19:59.727Z,4.7
2017-03-11T06:21:21.188Z,4.73
2017-03-11T06:22:43.987Z,4.78
2017-03-11T06:24:06.103Z,4.85
2017-03-11T06:25:27.933Z,4.73
2017-03-11T06:26:50.912Z,4.88
2017-03-11T06:28:13.763Z,4.85
2017-03-11T06:29:36.015Z,4.86
2017-03-11T06:30:58.163Z,4.88
2017-03-11T06:32:19.909Z,4.85
2017-03-11T06:33:42.465Z,4.96
2017-03-11T06:35:04.215Z,4.97
2017-03-11T06:36:26.354Z,4.88
2017-03-11T06:37:48.490Z,4.96
2017-03-11T06:39:10.074Z,4.89
2017-03-11T06:40:33.017Z,4.99
2017-03-11T06:41:55.554Z,5.04
2017-03-11T06:43:18.112Z,5.09
2017-03-11T06:44:40.565Z,5.1
2017-03-11T06:46:02.767Z,5.12
2017-03-11T06:47:24.914Z,5.13
2017-03-11T06:48:47.854Z,5.18
2017-03-11T06:50:09.893Z,5.25
2017-03-11T06:51:31.657Z,5.3
2017-03-11T06:52:53.480Z,5.25
2017-03-11T06:54:16.414Z,5.25
2017-03-11T06:55:38.904Z,5.27
2017-03-11T06:57:01.072Z,5.35
2017-03-11T06:58:23.597Z,5.4
2017-03-11T06:59:45.746Z,5.36
2017-03-11T07:01:07.965Z,5.54
2017-03-11T07:02:29.692Z,5.49
2017-03-11T07:03:51.846Z,5.39
2017-03-11T07:05:14.381Z,5.39
2017-03-11T07:06:37.275Z,5.54
2017-03-11T07:07:59.003Z,5.54
2017-03-11T07:09:22.086Z,5.57
2017-03-11T07:10:44.651Z,5.65
2017-03-11T07:12:07.088Z,5.71
2017-03-11T07:13:29.453Z,5.81
2017-03-11T07:14:52.100Z,5.82
2017-03-11T07:16:14.256Z,5.83
2017-03-11T07:17:36.665Z,5.82
2017-03-11T07:18:58.404Z,5.89
2017-03-11T07:20:20.688Z,5.86
2017-03-11T07:21:43.334Z,5.93
2017-03-11T07:23:05.717Z,5.9
2017-03-11T07:24:27.861Z,5.93
2017-03-11T07:25:49.227Z,5.99
2017-03-11T07:27:11.807Z,5.99
2017-03-11T07:28:34.661Z,6.09
2017-03-11T07:29:56.456Z,6.03
2017-03-11T07:31:19.485Z,6.08
2017-03-11T07:32:41.639Z,6.11
2017-03-11T07:34:03.662Z,6.11
2017-03-11T07:35:26.183Z,6.11
2017-03-11T07:36:47.557Z,6.21
2017-03-11T07:38:10.607Z,6.18
2017-03-11T07:39:33.097Z,6.19
2017-03-11T07:40:55.406Z,6.31
2017-03-11T07:42:18.431Z,6.36
2017-03-11T07:43:40.976Z,6.54
2017-03-11T07:45:03.891Z,6.56
2017-03-11T07:46:26.109Z,6.56
2017-03-11T07:47:48.240Z,6.58
2017-03-11T07:49:10.031Z,6.56
2017-03-11T07:50:32.605Z,6.59
2017-03-11T07:51:53.951Z,6.58
2017-03-11T07:53:16.116Z,6.52
2017-03-11T07:54:38.242Z,6.61
2017-03-11T07:56:01.075Z,6.56
2017-03-11T07:57:23.604Z,6.52
2017-03-11T07:58:45.732Z,6.55
2017-03-11T08:00:07.485Z,6.67
2017-03-11T08:01:30.353Z,6.76
2017-03-11T08:02:52.530Z,6.69
2017-03-11T08:04:14.345Z,6.8
2017-03-11T08:05:36.112Z,6.8
2017-03-11T08:06:58.523Z,6.98
2017-03-11T08:08:21.187Z,7.07
2017-03-11T08:09:43.764Z,7.2
2017-03-11T08:11:05.931Z,7.12
2017-03-11T08:12:28.321Z,7.13
2017-03-11T08:13:50.484Z,7.2
2017-03-11T08:15:13.111Z,7.21
2017-03-11T08:16:34.855Z,7.15
2017-03-11T08:17:57.252Z,7.23
2017-03-11T08:19:19.413Z,7.37
2017-03-11T08:20:41.594Z,7.49
2017-03-11T08:22:04.554Z,7.39
2017-03-11T08:23:27.381Z,7.39
2017-03-11T08:24:51.064Z,7.46
2017-03-11T08:26:13.749Z,7.46
2017-03-11T08:27:36.321Z,7.5
2017-03-11T08:28:59.545Z,7.48
2017-03-11T08:30:21.239Z,7.5
2017-03-11T08:31:43.779Z,7.57
2017-03-11T08:33:05.927Z,7.5
2017-03-11T08:34:28.333Z,7.46
2017-03-11T08:35:51.298Z,7.52
2017-03-11T08:37:13.021Z,7.37
2017-03-11T08:38:35.563Z,7.24
2017-03-11T08:39:57.533Z,7.4
2017-03-11T08:41:20.436Z,7.42
2017-03-11T08:42:43.617Z,7.58
2017-03-11T08:44:06.114Z,7.67
2017-03-11T08:45:28.873Z,7.6
2017-03-11T08:46:51.401Z,7.63
2017-03-11T08:48:13.910Z,7.61
2017-03-11T08:49:36.426Z,7.79
2017-03-11T08:50:58.405Z,7.83
2017-03-11T08:52:19.700Z,7.93
2017-03-11T08:53:42.635Z,7.9
2017-03-11T08:55:04.362Z,7.82
2017-03-11T08:56:27.336Z,7.82
2017-03-11T08:57:50.303Z,7.71
2017-03-11T08:59:12.795Z,7.89
2017-03-11T09:00:35.958Z,7.95
2017-03-11T09:01:58.782Z,7.95
2017-03-11T09:03:20.499Z,7.85
2017-03-11T09:04:42.666Z,7.89
2017-03-11T09:06:05.739Z,8.02
2017-03-11T09:07:28.472Z,8.04
2017-03-11T09:08:50.628Z,8.08
2017-03-11T09:10:13.144Z,8.12
2017-03-11T09:11:35.665Z,8.26
2017-03-11T09:12:58.519Z,8.52
2017-03-11T09:14:20.682Z,8.56
2017-03-11T09:15:42.417Z,8.44
2017-03-11T09:17:05.363Z,8.45
2017-03-11T09:18:28.154Z,8.56
2017-03-11T09:19:51.135Z,8.5
2017-03-11T09:21:13.306Z,8.47
2017-03-11T09:22:35.415Z,8.41
2017-03-11T09:23:57.390Z,8.47
2017-03-11T09:25:19.627Z,8.68
2017-03-11T09:26:41.773Z,8.77
2017-03-11T09:28:03.940Z,8.92
2017-03-11T09:29:26.277Z,9.05
2017-03-11T09:30:49.217Z,9.08
2017-03-11T09:32:11.347Z,9.23
2017-03-11T09:33:33.089Z,9.36
2017-03-11T09:34:55.432Z,9.46
2017-03-11T09:36:17.528Z,9.58
2017-03-11T09:37:40.041Z,9.64
2017-03-11T09:39:02.569Z,9.72
2017-03-11T09:40:25.029Z,9.72
2017-03-11T09:41:47.151Z,9.79
2017-03-11T09:43:09.256Z,9.89
2017-03-11T09:44:31.971Z,9.93
2017-03-11T09:45:54.009Z,10.2
2017-03-11T09:47:16.921Z,10.12
2017-03-11T09:48:39.469Z,10.12
2017-03-11T09:50:01.706Z,9.99
2017-03-11T09:51:24.126Z,10.11
2017-03-11T09:52:46.275Z,10.02
2017-03-11T09:54:08.389Z,9.84
2017-03-11T09:55:31.347Z,9.89
2017-03-11T09:56:53.996Z,10.11
2017-03-11T09:58:16.608Z,10.29
2017-03-11T09:59:38.728Z,10.4
2017-03-11T10:01:01.251Z,10.55
2017-03-11T10:02:23.239Z,10.3
2017-03-11T10:03:45.033Z,10.32
2017-03-11T10:05:06.826Z,10.41
2017-03-11T10:06:29.500Z,10.61
2017-03-11T10:07:51.875Z,10.47
2017-03-11T10:09:14.015Z,10.59
2017-03-11T10:10:36.132Z,10.59
2017-03-11T10:11:58.662Z,10.51
2017-03-11T10:13:21.223Z,10.86
2017-03-11T10:14:43.742Z,11.24
2017-03-11T10:16:06.322Z,11.44
2017-03-11T10:17:28.947Z,11.36
2017-03-11T10:18:50.916Z,11.18
2017-03-11T10:20:13.847Z,10.67
2017-03-11T10:21:35.643Z,10.48
2017-03-11T10:22:58.158Z,10.38
2017-03-11T10:24:21.124Z,10.56
2017-03-11T10:25:44.017Z,10.67
2017-03-11T10:27:06.521Z,10.73
2017-03-11T10:28:29.527Z,10.63
2017-03-11T10:29:52.980Z,10.76
2017-03-11T10:31:15.877Z,10.91
2017-03-11T10:32:38.777Z,11.36
2017-03-11T10:34:00.502Z,11.61
2017-03-11T10:35:23.319Z,11.55
2017-03-11T10:36:45.977Z,11.58
2017-03-11T10:38:08.215Z,11.28
2017-03-11T10:39:30.323Z,11.33
2017-03-11T10:40:53.176Z,11.47
2017-03-11T10:42:15.685Z,11.33
2017-03-11T10:43:38.192Z,11.28
2017-03-11T10:45:00.320Z,11.25
2017-03-11T10:46:23.516Z,11.25
2017-03-11T10:47:46.041Z,11.33
2017-03-11T10:49:07.800Z,11.14
2017-03-11T10:50:30.575Z,11.19
2017-03-11T10:51:53.393Z,11.33
2017-03-11T10:53:15.501Z,11.6
2017-03-11T10:54:38.010Z,11.73
2017-03-11T10:55:59.720Z,11.86
2017-03-11T10:57:22.492Z,11.75
2017-03-11T10:58:44.574Z,11.69
2017-03-11T11:00:06.716Z,11.64
2017-03-11T11:01:28.866Z,11.69
2017-03-11T11:02:51.431Z,11.49
2017-03-11T11:04:14.355Z,11.37
2017-03-11T11:05:37.281Z,11.33
2017-03-11T11:06:59.826Z,11.36
2017-03-11T11:08:22.658Z,11.57
2017-03-11T11:09:44.777Z,11.78
2017-03-11T11:11:07.378Z,11.75
2017-03-11T11:12:29.482Z,11.82
2017-03-11T11:13:52.826Z,11.55
2017-03-11T11:15:15.405Z,11.65
2017-03-11T11:16:37.574Z,11.88
2017-03-11T11:17:59.712Z,11.98
2017-03-11T11:19:22.114Z,12.12
2017-03-11T11:20:44.624Z,12.41
2017-03-11T11:22:06.816Z,12.52
2017-03-11T11:23:28.932Z,12.59
2017-03-11T11:24:50.490Z,12.52
2017-03-11T11:26:13.423Z,12.32
2017-03-11T11:27:35.930Z,12.31
2017-03-11T11:28:58.154Z,12.28
2017-03-11T11:30:21.098Z,12.29
2017-03-11T11:31:42.799Z,12.24
2017-03-11T11:33:05.299Z,12.56
2017-03-11T11:34:28.212Z,12.78
2017-03-11T11:35:50.614Z,13.04
2017-03-11T11:37:12.717Z,12.89
2017-03-11T11:38:35.203Z,12.6
2017-03-11T11:39:57.410Z,12.47
2017-03-11T11:41:20.261Z,12.13
2017-03-11T11:42:42.399Z,12.05
2017-03-11T11:44:04.510Z,11.99
2017-03-11T11:45:26.661Z,12.05
2017-03-11T11:46:48.861Z,12.17
2017-03-11T11:48:11.402Z,12.23
2017-03-11T11:49:34.269Z,12.28
2017-03-11T11:50:56.380Z,12.31
2017-03-11T11:52:19.623Z,12.31
2017-03-11T11:53:41.755Z,12.23
2017-03-11T11:55:04.729Z,11.99
2017-03-11T11:56:26.036Z,12.16
2017-03-11T11:57:48.828Z,12.12
2017-03-11T11:59:11.369Z,11.88
2017-03-11T12:00:33.937Z,11.6
2017-03-11T12:01:56.144Z,11.65
2017-03-11T12:03:19.089Z,11.6
2017-03-11T12:04:42.057Z,11.6
2017-03-11T12:06:04.166Z,11.51
2017-03-11T12:07:25.859Z,11.57
2017-03-11T12:08:50.504Z,11.51
2017-03-11T12:10:12.665Z,11.64
2017-03-11T12:11:35.593Z,11.67
2017-03-11T12:12:58.107Z,11.6
2017-03-11T12:14:20.505Z,11.54
2017-03-11T12:15:43.032Z,11.52
2017-03-11T12:17:05.957Z,11.69
2017-03-11T12:18:28.866Z,11.55
2017-03-11T12:19:51.857Z,11.36
2017-03-11T12:21:14.795Z,11.4
2017-03-11T12:22:37.011Z,11.51
2017-03-11T12:24:00.018Z,11.73
2017-03-11T12:25:22.407Z,11.98
2017-03-11T12:26:44.554Z,12.04
2017-03-11T12:28:07.478Z,12.23
2017-03-11T12:29:30.377Z,12.27
2017-03-11T12:30:52.437Z,12.2
2017-03-11T12:32:14.567Z,12.29
2017-03-11T12:33:37.429Z,12.41
2017-03-11T12:34:59.353Z,12.34
2017-03-11T12:36:22.127Z,12.32
2017-03-11T12:37:44.512Z,12.24
2017-03-11T12:39:07.066Z,12.17
2017-03-11T12:40:30.006Z,12.12
2017-03-11T12:41:52.982Z,11.99
2017-03-11T12:43:15.493Z,12.14
2017-03-11T12:44:37.648Z,12.16
2017-03-11T12:45:59.779Z,12.16
2017-03-11T12:47:22.979Z,12.29
2017-03-11T12:48:46.250Z,12.32
2017-03-11T12:50:08.745Z,12.27
2017-03-11T12:51:30.879Z,12.35
2017-03-11T12:52:53.309Z,12.39
2017-03-11T12:54:15.500Z,12.39
2017-03-11T12:55:38.431Z,12.34
2017-03-11T12:57:00.958Z,12.52
2017-03-11T12:58:23.850Z,12.53
2017-03-11T12:59:45.302Z,12.32
2017-03-11T13:01:07.446Z,12.34
2017-03-11T13:02:29.718Z,12.28
2017-03-11T13:03:52.930Z,12.32
2017-03-11T13:05:15.048Z,12.29
2017-03-11T13:06:38.321Z,12.28
2017-03-11T13:08:01.226Z,12.1
2017-03-11T13:09:24.688Z,11.88
2017-03-11T13:10:47.192Z,11.88
2017-03-11T13:12:09.373Z,11.8
2017-03-11T13:13:32.310Z,11.69
2017-03-11T13:14:55.679Z,11.82
2017-03-11T13:16:18.207Z,11.82
2017-03-11T13:17:41.204Z,11.85
2017-03-11T13:19:04.227Z,11.79
2017-03-11T13:20:26.945Z,11.79
2017-03-11T13:21:49.912Z,11.73
2017-03-11T13:23:12.428Z,11.78
2017-03-11T13:24:34.958Z,11.78
2017-03-11T13:25:58.019Z,11.91
2017-03-11T13:27:20.164Z,11.94
2017-03-11T13:28:42.688Z,11.85
2017-03-11T13:30:04.927Z,11.91
2017-03-11T13:31:27.336Z,11.85
2017-03-11T13:32:49.916Z,11.75
2017-03-11T13:34:12.845Z,11.73
2017-03-11T13:35:35.403Z,11.72
2017-03-11T13:36:58.235Z,11.78
2017-03-11T13:38:21.187Z,11.96
2017-03-11T13:39:43.704Z,12.01
2017-03-11T13:41:06.230Z,12.04
2017-03-11T13:42:28.647Z,12.02
2017-03-11T13:43:50.373Z,12.12
2017-03-11T13:45:12.901Z,12.07
2017-03-11T13:46:35.415Z,12.1
2017-03-11T13:47:57.484Z,11.95
2017-03-11T13:49:20.063Z,11.94
2017-03-11T13:50:43.029Z,11.9
2017-03-11T13:52:05.297Z,11.98
2017-03-11T13:53:27.782Z,11.96
2017-03-11T13:54:50.795Z,11.86
2017-03-11T13:56:12.914Z,11.99
2017-03-11T13:57:35.448Z,11.96
2017-03-11T13:58:58.636Z,11.9
2017-03-11T14:00:21.795Z,11.78
2017-03-11T14:01:44.863Z,11.83
2017-03-11T14:03:07.785Z,11.94
2017-03-11T14:04:30.295Z,12.09
2017-03-11T14:05:53.297Z,12.21
2017-03-11T14:07:15.447Z,12.27
2017-03-11T14:08:38.369Z,12.21
2017-03-11T14:10:01.313Z,12.14
2017-03-11T14:11:23.917Z,12.13
2017-03-11T14:12:46.686Z,12.1
2017-03-11T14:14:08.416Z,12.16
2017-03-11T14:15:31.245Z,12.14
2017-03-11T14:16:54.180Z,12.17
2017-03-11T14:18:17.103Z,12.2
2017-03-11T14:19:40.149Z,12.16
2017-03-11T14:21:03.388Z,12.01
2017-03-11T14:22:26.456Z,11.98
2017-03-11T14:23:48.615Z,12.05
2017-03-11T14:25:11.217Z,12.13
2017-03-11T14:26:34.447Z,12.13
2017-03-11T14:27:57.070Z,12.21
2017-03-11T14:29:19.758Z,12.16
2017-03-11T14:30:42.702Z,12.32
2017-03-11T14:32:06.132Z,12.32
2017-03-11T14:33:29.065Z,12.37
2017-03-11T14:34:51.628Z,12.34
2017-03-11T14:36:14.162Z,12.32
2017-03-11T14:37:37.401Z,12.31
2017-03-11T14:38:59.522Z,12.24
2017-03-11T14:40:22.483Z,12.28
2017-03-11T14:41:45.680Z,12.32
2017-03-11T14:43:08.855Z,12.42
2017-03-11T14:44:31.818Z,12.41
2017-03-11T14:45:54.855Z,12.39
2017-03-11T14:47:16.991Z,12.42
2017-03-11T14:48:40.396Z,12.5
2017-03-11T14:50:02.962Z,12.49
2017-03-11T14:51:25.500Z,12.41
2017-03-11T14:52:48.506Z,12.32
2017-03-11T14:54:11.738Z,12.39
2017-03-11T14:55:34.276Z,12.38
2017-03-11T14:56:56.419Z,12.38
2017-03-11T14:58:19.413Z,12.39
2017-03-11T14:59:41.818Z,12.37
2017-03-11T15:01:03.983Z,12.52
2017-03-11T15:02:25.956Z,12.6
2017-03-11T15:03:48.873Z,12.7
2017-03-11T15:05:12.095Z,12.62
2017-03-11T15:06:34.445Z,12.71
2017-03-11T15:07:57.386Z,12.82
2017-03-11T15:09:19.944Z,12.86
2017-03-11T15:10:43.246Z,13.05
2017-03-11T15:12:05.894Z,13.07
2017-03-11T15:13:28.885Z,13.1
2017-03-11T15:14:51.804Z,13.1
2017-03-11T15:16:14.676Z,13.19
2017-03-11T15:17:36.807Z,13.19
2017-03-11T15:18:59.993Z,13.3
2017-03-11T15:20:22.180Z,13.05
2017-03-11T15:21:45.097Z,13.07
2017-03-11T15:23:08.107Z,13.12
2017-03-11T15:24:30.658Z,13.2
2017-03-11T15:25:53.597Z,13.22
2017-03-11T15:27:16.480Z,13.3
2017-03-11T15:28:39.298Z,13.33
2017-03-11T15:30:01.978Z,13.42
2017-03-11T15:31:25.002Z,13.49
2017-03-11T15:32:47.868Z,13.39
2017-03-11T15:34:10.851Z,13.38
2017-03-11T15:35:33.414Z,13.32
2017-03-11T15:36:56.363Z,13.38
2017-03-11T15:38:19.195Z,13.22
2017-03-11T15:39:42.215Z,13.3
2017-03-11T15:41:04.787Z,13.22
2017-03-11T15:42:27.696Z,13.03
2017-03-11T15:43:50.556Z,12.97
2017-03-11T15:45:13.105Z,12.89
2017-03-11T15:46:35.548Z,12.74
2017-03-11T15:47:58.123Z,12.74
2017-03-11T15:49:20.615Z,12.62
2017-03-11T15:50:43.206Z,12.75
2017-03-11T15:52:05.904Z,12.57
2017-03-11T15:53:28.540Z,12.53
2017-03-11T15:54:51.454Z,12.5
2017-03-11T15:56:14.646Z,12.42
2017-03-11T15:58:57.534Z,12.28
2017-03-11T16:00:20.319Z,12.32
2017-03-11T16:01:43.295Z,12.24
2017-03-11T16:03:06.243Z,12.27
2017-03-11T16:04:28.869Z,12.12
2017-03-11T16:05:51.668Z,12.13
2017-03-11T16:07:14.828Z,11.99
2017-03-11T16:10:00.960Z,11.95
2017-03-11T16:11:24.186Z,11.88
2017-03-11T16:12:47.138Z,11.75
2017-03-11T16:14:09.692Z,11.8
2017-03-11T16:15:32.660Z,11.7
2017-03-11T16:16:55.867Z,11.73
2017-03-11T16:18:18.798Z,11.64
2017-03-11T16:19:41.876Z,11.55
2017-03-11T16:21:04.851Z,11.49
2017-03-11T16:22:27.740Z,11.44
2017-03-11T16:23:50.316Z,11.28
2017-03-11T16:25:12.445Z,11.35
2017-03-11T16:26:35.028Z,11.36
2017-03-11T16:27:57.581Z,11.28
2017-03-11T16:29:19.809Z,11.33
2017-03-11T16:30:42.612Z,11.19
2017-03-11T16:32:05.703Z,11.18
2017-03-11T16:33:28.545Z,11.17
2017-03-11T16:34:51.104Z,11.1
2017-03-11T16:36:14.078Z,11.06
2017-03-11T16:37:36.658Z,10.91
2017-03-11T16:38:59.899Z,10.79
2017-03-11T16:40:22.878Z,10.88
2017-03-11T16:41:46.330Z,10.71
2017-03-11T16:43:09.302Z,10.74
2017-03-11T16:44:31.724Z,10.71
2017-03-11T16:45:54.270Z,10.73
2017-03-11T16:47:17.216Z,10.68
2017-03-11T16:48:40.207Z,10.63
2017-03-11T16:50:03.039Z,10.61
2017-03-11T16:51:26.027Z,10.59
2017-03-11T16:52:48.979Z,10.51
2017-03-11T16:54:11.926Z,10.53
2017-03-11T16:55:35.111Z,10.44
2017-03-11T16:56:57.785Z,10.38
2017-03-11T16:58:20.752Z,10.51
2017-03-11T16:59:43.697Z,10.34
2017-03-11T17:01:06.873Z,10.26
2017-03-11T17:02:29.427Z,10.15
2017-03-11T17:03:52.210Z,10.18
2017-03-11T17:05:15.139Z,10.32
2017-03-11T17:06:38.434Z,10.18
2017-03-11T17:08:01.406Z,10.14
2017-03-11T17:09:23.542Z,10.05
2017-03-11T17:10:46.246Z,9.97
2017-03-11T17:12:09.446Z,9.81
2017-03-11T17:13:32.398Z,9.76
2017-03-11T17:14:54.901Z,9.76
2017-03-11T17:16:17.843Z,9.68
2017-03-11T17:17:40.270Z,9.69
2017-03-11T17:19:03.194Z,9.66
2017-03-11T17:20:25.962Z,9.57
2017-03-11T17:21:48.884Z,9.57
2017-03-11T17:23:11.690Z,9.56
2017-03-11T17:24:34.808Z,9.47
2017-03-11T17:25:57.760Z,9.42
2017-03-11T17:27:20.719Z,9.48
2017-03-11T17:28:43.552Z,9.42
2017-03-11T17:30:06.095Z,9.39
2017-03-11T17:31:29.078Z,9.33
2017-03-11T17:32:52.022Z,9.33
2017-03-11T17:34:14.916Z,9.23
2017-03-11T17:35:37.916Z,9.1
2017-03-11T17:37:01.106Z,9.08
2017-03-11T17:38:24.105Z,9.1
2017-03-11T17:39:46.761Z,9.05
2017-03-11T17:41:09.693Z,8.98
2017-03-11T17:42:32.237Z,9.1
2017-03-11T17:43:54.784Z,9.02
2017-03-11T17:45:18.009Z,9.08
2017-03-11T17:46:41.005Z,9.05
2017-03-11T17:48:03.948Z,9.05
2017-03-11T17:49:26.871Z,8.95
2017-03-11T17:50:50.108Z,8.92
2017-03-11T17:52:13.038Z,8.96
2017-03-11T17:53:35.945Z,8.87
2017-03-11T17:54:58.955Z,8.83
2017-03-11T17:56:22.179Z,8.84
2017-03-11T17:57:44.741Z,8.73
2017-03-11T17:59:07.717Z,8.73
2017-03-11T18:00:30.724Z,8.79
2017-03-11T18:01:53.585Z,8.77
2017-03-11T18:03:16.127Z,8.71
2017-03-11T18:04:39.086Z,8.8
2017-03-11T18:06:02.041Z,8.83
2017-03-11T18:07:25.215Z,8.81
2017-03-11T18:08:48.213Z,8.73
2017-03-11T18:10:10.846Z,8.68
2017-03-11T18:11:33.782Z,8.74
2017-03-11T18:12:56.219Z,8.71